sensor_id;sensor_type;location;lat;lon;timestamp;P1;durP1;ratioP1;P2;durP2;ratioP2
10473;SDS011;5284;50.446;7.904;2023-03-01T00:04:07;28.17;;;12.60;;
10473;SDS011;5284;50.446;7.904;2023-03-01T00:09:11;29.00;;;12.80;;
10473;SDS011;5284;50.446;7.904;2023-03-01T00:14:14;26.05;;;12.73;;
10473;SDS011;5284;50.446;7.904;2023-03-01T00:19:18;28.00;;;12.15;;
10473;SDS011;5284;50.446;7.904;2023-03-01T00:24:24;29.75;;;11.82;;
10473;SDS011;5284;50.446;7.904;2023-03-01T00:29:27;25.55;;;12.07;;
10473;SDS011;5284;50.446;7.904;2023-03-01T00:34:30;24.40;;;11.88;;
10473;SDS011;5284;50.446;7.904;2023-03-01T00:39:35;24.95;;;12.50;;
10473;SDS011;5284;50.446;7.904;2023-03-01T00:44:37;25.02;;;11.88;;
10473;SDS011;5284;50.446;7.904;2023-03-01T00:49:40;28.45;;;11.90;;
10473;SDS011;5284;50.446;7.904;2023-03-01T00:54:45;24.77;;;11.23;;
10473;SDS011;5284;50.446;7.904;2023-03-01T00:59:48;27.73;;;12.43;;
10473;SDS011;5284;50.446;7.904;2023-03-01T01:04:50;24.20;;;12.55;;
10473;SDS011;5284;50.446;7.904;2023-03-01T01:09:56;28.85;;;14.07;;
10473;SDS011;5284;50.446;7.904;2023-03-01T01:14:59;30.90;;;13.55;;
10473;SDS011;5284;50.446;7.904;2023-03-01T01:20:02;23.13;;;11.95;;
10473;SDS011;5284;50.446;7.904;2023-03-01T01:25:07;28.75;;;12.90;;
10473;SDS011;5284;50.446;7.904;2023-03-01T01:30:11;31.25;;;13.10;;
10473;SDS011;5284;50.446;7.904;2023-03-01T01:35:15;26.25;;;13.20;;
10473;SDS011;5284;50.446;7.904;2023-03-01T01:40:19;27.92;;;13.30;;
10473;SDS011;5284;50.446;7.904;2023-03-01T01:45:30;24.02;;;13.10;;
10473;SDS011;5284;50.446;7.904;2023-03-01T01:50:35;29.45;;;12.30;;
10473;SDS011;5284;50.446;7.904;2023-03-01T01:55:45;24.60;;;13.68;;
10473;SDS011;5284;50.446;7.904;2023-03-01T02:00:49;27.08;;;12.57;;
10473;SDS011;5284;50.446;7.904;2023-03-01T02:05:53;33.20;;;13.45;;
10473;SDS011;5284;50.446;7.904;2023-03-01T02:11:03;26.77;;;13.13;;
10473;SDS011;5284;50.446;7.904;2023-03-01T02:16:08;30.60;;;13.02;;
10473;SDS011;5284;50.446;7.904;2023-03-01T02:21:21;37.15;;;14.23;;
10473;SDS011;5284;50.446;7.904;2023-03-01T02:26:41;30.38;;;13.73;;
10473;SDS011;5284;50.446;7.904;2023-03-01T02:31:49;27.38;;;13.70;;
10473;SDS011;5284;50.446;7.904;2023-03-01T02:41:59;29.25;;;13.77;;
10473;SDS011;5284;50.446;7.904;2023-03-01T02:47:05;28.88;;;14.55;;
10473;SDS011;5284;50.446;7.904;2023-03-01T02:52:21;32.20;;;14.45;;
10473;SDS011;5284;50.446;7.904;2023-03-01T02:57:46;32.22;;;13.77;;
10473;SDS011;5284;50.446;7.904;2023-03-01T03:02:53;36.40;;;15.32;;
10473;SDS011;5284;50.446;7.904;2023-03-01T03:07:59;30.88;;;13.55;;
10473;SDS011;5284;50.446;7.904;2023-03-01T03:13:06;38.47;;;14.63;;
10473;SDS011;5284;50.446;7.904;2023-03-01T03:18:13;31.85;;;14.88;;
10473;SDS011;5284;50.446;7.904;2023-03-01T03:23:17;30.40;;;15.43;;
10473;SDS011;5284;50.446;7.904;2023-03-01T03:28:20;29.58;;;15.80;;
10473;SDS011;5284;50.446;7.904;2023-03-01T03:33:25;35.00;;;14.98;;
10473;SDS011;5284;50.446;7.904;2023-03-01T03:38:27;34.92;;;15.45;;
10473;SDS011;5284;50.446;7.904;2023-03-01T03:43:31;34.55;;;14.68;;
10473;SDS011;5284;50.446;7.904;2023-03-01T03:48:37;31.92;;;14.63;;
10473;SDS011;5284;50.446;7.904;2023-03-01T03:53:41;34.60;;;14.70;;
10473;SDS011;5284;50.446;7.904;2023-03-01T03:58:45;32.45;;;15.43;;
10473;SDS011;5284;50.446;7.904;2023-03-01T04:03:49;32.40;;;13.68;;
10473;SDS011;5284;50.446;7.904;2023-03-01T04:08:55;37.35;;;15.10;;
10473;SDS011;5284;50.446;7.904;2023-03-01T04:13:59;39.78;;;16.98;;
10473;SDS011;5284;50.446;7.904;2023-03-01T04:19:03;44.85;;;17.38;;
10473;SDS011;5284;50.446;7.904;2023-03-01T04:24:07;47.22;;;17.88;;
10473;SDS011;5284;50.446;7.904;2023-03-01T04:29:10;46.85;;;18.00;;
10473;SDS011;5284;50.446;7.904;2023-03-01T04:34:15;39.08;;;17.35;;
10473;SDS011;5284;50.446;7.904;2023-03-01T04:39:18;38.88;;;16.05;;
10473;SDS011;5284;50.446;7.904;2023-03-01T04:44:21;41.17;;;17.30;;
10473;SDS011;5284;50.446;7.904;2023-03-01T04:49:25;40.78;;;16.30;;
10473;SDS011;5284;50.446;7.904;2023-03-01T04:54:28;37.80;;;15.63;;
10473;SDS011;5284;50.446;7.904;2023-03-01T04:59:32;38.13;;;15.57;;
10473;SDS011;5284;50.446;7.904;2023-03-01T05:04:36;36.40;;;16.77;;
10473;SDS011;5284;50.446;7.904;2023-03-01T05:09:39;38.63;;;17.42;;
10473;SDS011;5284;50.446;7.904;2023-03-01T05:14:42;34.22;;;15.68;;
10473;SDS011;5284;50.446;7.904;2023-03-01T05:19:46;46.45;;;18.10;;
10473;SDS011;5284;50.446;7.904;2023-03-01T05:24:49;50.13;;;17.77;;
10473;SDS011;5284;50.446;7.904;2023-03-01T05:29:52;40.65;;;16.88;;
10473;SDS011;5284;50.446;7.904;2023-03-01T05:34:56;42.47;;;18.35;;
10473;SDS011;5284;50.446;7.904;2023-03-01T05:39:59;37.35;;;17.27;;
10473;SDS011;5284;50.446;7.904;2023-03-01T05:45:03;41.08;;;16.27;;
10473;SDS011;5284;50.446;7.904;2023-03-01T05:50:14;45.58;;;18.38;;
10473;SDS011;5284;50.446;7.904;2023-03-01T05:55:20;37.65;;;15.65;;
10473;SDS011;5284;50.446;7.904;2023-03-01T06:00:25;38.08;;;15.80;;
10473;SDS011;5284;50.446;7.904;2023-03-01T06:05:30;36.92;;;15.82;;
10473;SDS011;5284;50.446;7.904;2023-03-01T06:10:34;34.65;;;16.40;;
10473;SDS011;5284;50.446;7.904;2023-03-01T06:15:37;34.13;;;16.15;;
10473;SDS011;5284;50.446;7.904;2023-03-01T06:20:42;35.17;;;16.45;;
10473;SDS011;5284;50.446;7.904;2023-03-01T06:25:45;40.65;;;17.52;;
10473;SDS011;5284;50.446;7.904;2023-03-01T06:30:48;44.08;;;18.63;;
10473;SDS011;5284;50.446;7.904;2023-03-01T06:35:55;44.92;;;17.45;;
10473;SDS011;5284;50.446;7.904;2023-03-01T06:40:58;38.88;;;15.60;;
10473;SDS011;5284;50.446;7.904;2023-03-01T06:46:05;37.10;;;16.33;;
10473;SDS011;5284;50.446;7.904;2023-03-01T06:51:10;36.92;;;17.05;;
10473;SDS011;5284;50.446;7.904;2023-03-01T06:56:13;33.50;;;15.60;;
10473;SDS011;5284;50.446;7.904;2023-03-01T07:01:16;37.80;;;17.05;;
10473;SDS011;5284;50.446;7.904;2023-03-01T07:06:23;54.20;;;21.65;;
10473;SDS011;5284;50.446;7.904;2023-03-01T07:11:26;50.08;;;18.73;;
10473;SDS011;5284;50.446;7.904;2023-03-01T07:16:29;39.67;;;16.92;;
10473;SDS011;5284;50.446;7.904;2023-03-01T07:21:34;39.17;;;17.20;;
10473;SDS011;5284;50.446;7.904;2023-03-01T07:26:37;47.00;;;19.20;;
10473;SDS011;5284;50.446;7.904;2023-03-01T07:31:40;39.28;;;16.75;;
10473;SDS011;5284;50.446;7.904;2023-03-01T07:36:44;39.95;;;17.35;;
10473;SDS011;5284;50.446;7.904;2023-03-01T07:41:47;39.00;;;16.38;;
10473;SDS011;5284;50.446;7.904;2023-03-01T07:46:54;41.00;;;17.25;;
10473;SDS011;5284;50.446;7.904;2023-03-01T07:52:04;38.17;;;17.88;;
10473;SDS011;5284;50.446;7.904;2023-03-01T07:57:07;41.15;;;18.23;;
10473;SDS011;5284;50.446;7.904;2023-03-01T08:02:10;35.13;;;16.80;;
10473;SDS011;5284;50.446;7.904;2023-03-01T08:07:15;41.53;;;19.23;;
10473;SDS011;5284;50.446;7.904;2023-03-01T08:12:18;45.13;;;19.13;;
10473;SDS011;5284;50.446;7.904;2023-03-01T08:17:21;37.40;;;17.27;;
10473;SDS011;5284;50.446;7.904;2023-03-01T08:22:25;40.17;;;15.48;;
10473;SDS011;5284;50.446;7.904;2023-03-01T08:27:28;38.55;;;16.23;;
10473;SDS011;5284;50.446;7.904;2023-03-01T08:32:34;37.65;;;16.42;;
10473;SDS011;5284;50.446;7.904;2023-03-01T08:37:40;35.97;;;16.75;;
10473;SDS011;5284;50.446;7.904;2023-03-01T08:42:42;38.70;;;15.07;;
10473;SDS011;5284;50.446;7.904;2023-03-01T08:47:47;34.58;;;15.52;;
10473;SDS011;5284;50.446;7.904;2023-03-01T08:52:51;32.17;;;13.30;;
10473;SDS011;5284;50.446;7.904;2023-03-01T08:57:55;30.10;;;14.60;;
10473;SDS011;5284;50.446;7.904;2023-03-01T09:03:00;38.42;;;15.50;;
10473;SDS011;5284;50.446;7.904;2023-03-01T09:08:04;31.70;;;14.73;;
10473;SDS011;5284;50.446;7.904;2023-03-01T09:13:09;35.22;;;14.98;;
10473;SDS011;5284;50.446;7.904;2023-03-01T09:18:12;36.70;;;14.90;;
10473;SDS011;5284;50.446;7.904;2023-03-01T09:23:16;34.38;;;15.80;;
10473;SDS011;5284;50.446;7.904;2023-03-01T09:28:19;25.92;;;11.98;;
10473;SDS011;5284;50.446;7.904;2023-03-01T09:33:31;37.53;;;14.85;;
10473;SDS011;5284;50.446;7.904;2023-03-01T09:38:36;37.72;;;13.93;;
10473;SDS011;5284;50.446;7.904;2023-03-01T09:43:41;27.33;;;14.25;;
10473;SDS011;5284;50.446;7.904;2023-03-01T09:48:48;25.58;;;12.32;;
10473;SDS011;5284;50.446;7.904;2023-03-01T09:53:56;26.98;;;11.80;;
10473;SDS011;5284;50.446;7.904;2023-03-01T09:59:04;33.88;;;13.18;;
10473;SDS011;5284;50.446;7.904;2023-03-01T10:04:23;31.90;;;12.63;;
10473;SDS011;5284;50.446;7.904;2023-03-01T10:09:33;30.85;;;12.55;;
10473;SDS011;5284;50.446;7.904;2023-03-01T10:14:39;27.60;;;12.43;;
10473;SDS011;5284;50.446;7.904;2023-03-01T10:19:51;20.38;;;10.50;;
10473;SDS011;5284;50.446;7.904;2023-03-01T10:24:56;32.45;;;13.65;;
10473;SDS011;5284;50.446;7.904;2023-03-01T10:30:02;43.60;;;15.63;;
10473;SDS011;5284;50.446;7.904;2023-03-01T10:35:17;46.30;;;15.20;;
10473;SDS011;5284;50.446;7.904;2023-03-01T10:40:22;39.22;;;17.17;;
10473;SDS011;5284;50.446;7.904;2023-03-01T10:45:30;25.52;;;13.35;;
10473;SDS011;5284;50.446;7.904;2023-03-01T10:50:38;31.60;;;13.18;;
10473;SDS011;5284;50.446;7.904;2023-03-01T10:55:44;36.30;;;16.23;;
10473;SDS011;5284;50.446;7.904;2023-03-01T11:00:49;28.63;;;14.25;;
10473;SDS011;5284;50.446;7.904;2023-03-01T11:05:58;23.75;;;13.05;;
10473;SDS011;5284;50.446;7.904;2023-03-01T11:11:22;31.80;;;13.85;;
10473;SDS011;5284;50.446;7.904;2023-03-01T11:16:31;26.70;;;13.55;;
10473;SDS011;5284;50.446;7.904;2023-03-01T11:26:44;26.15;;;12.10;;
10473;SDS011;5284;50.446;7.904;2023-03-01T11:31:49;25.33;;;12.02;;
10473;SDS011;5284;50.446;7.904;2023-03-01T11:36:58;26.17;;;13.10;;
10473;SDS011;5284;50.446;7.904;2023-03-01T11:42:06;26.70;;;13.07;;
10473;SDS011;5284;50.446;7.904;2023-03-01T11:47:33;22.70;;;12.60;;
10473;SDS011;5284;50.446;7.904;2023-03-01T11:52:54;23.25;;;11.95;;
10473;SDS011;5284;50.446;7.904;2023-03-01T11:58:23;23.02;;;11.43;;
10473;SDS011;5284;50.446;7.904;2023-03-01T12:03:38;80.57;;;34.03;;
10473;SDS011;5284;50.446;7.904;2023-03-01T12:09:01;18.35;;;10.40;;
10473;SDS011;5284;50.446;7.904;2023-03-01T12:14:26;17.25;;;9.10;;
10473;SDS011;5284;50.446;7.904;2023-03-01T12:19:44;29.58;;;13.63;;
10473;SDS011;5284;50.446;7.904;2023-03-01T12:25:13;30.00;;;14.40;;
10473;SDS011;5284;50.446;7.904;2023-03-01T12:30:37;17.15;;;9.30;;
10473;SDS011;5284;50.446;7.904;2023-03-01T12:36:15;30.33;;;17.10;;
10473;SDS011;5284;50.446;7.904;2023-03-01T12:41:40;14.85;;;8.27;;
10473;SDS011;5284;50.446;7.904;2023-03-01T12:46:55;19.70;;;10.93;;
10473;SDS011;5284;50.446;7.904;2023-03-01T12:52:11;15.70;;;8.68;;
10473;SDS011;5284;50.446;7.904;2023-03-01T12:57:21;21.17;;;10.85;;
10473;SDS011;5284;50.446;7.904;2023-03-01T13:02:41;14.23;;;8.30;;
10473;SDS011;5284;50.446;7.904;2023-03-01T13:07:53;12.30;;;7.38;;
10473;SDS011;5284;50.446;7.904;2023-03-01T13:13:12;12.48;;;7.53;;
10473;SDS011;5284;50.446;7.904;2023-03-01T13:23:33;42.95;;;18.15;;
10473;SDS011;5284;50.446;7.904;2023-03-01T13:28:40;17.10;;;7.75;;
10473;SDS011;5284;50.446;7.904;2023-03-01T13:33:55;24.63;;;9.55;;
10473;SDS011;5284;50.446;7.904;2023-03-01T13:39:00;15.57;;;8.18;;
10473;SDS011;5284;50.446;7.904;2023-03-01T13:44:11;18.67;;;7.13;;
10473;SDS011;5284;50.446;7.904;2023-03-01T13:49:17;17.08;;;10.23;;
10473;SDS011;5284;50.446;7.904;2023-03-01T13:59:28;18.60;;;7.53;;
10473;SDS011;5284;50.446;7.904;2023-03-01T14:04:34;13.63;;;7.35;;
10473;SDS011;5284;50.446;7.904;2023-03-01T14:09:37;14.98;;;7.40;;
10473;SDS011;5284;50.446;7.904;2023-03-01T14:14:46;16.08;;;7.57;;
10473;SDS011;5284;50.446;7.904;2023-03-01T14:19:57;17.30;;;8.18;;
10473;SDS011;5284;50.446;7.904;2023-03-01T14:25:02;18.58;;;7.53;;
10473;SDS011;5284;50.446;7.904;2023-03-01T14:30:10;20.65;;;8.23;;
10473;SDS011;5284;50.446;7.904;2023-03-01T14:35:20;17.80;;;8.57;;
10473;SDS011;5284;50.446;7.904;2023-03-01T14:40:26;19.67;;;8.00;;
10473;SDS011;5284;50.446;7.904;2023-03-01T14:45:31;22.38;;;8.20;;
10473;SDS011;5284;50.446;7.904;2023-03-01T14:50:36;15.05;;;8.15;;
10473;SDS011;5284;50.446;7.904;2023-03-01T14:55:44;22.83;;;8.95;;
10473;SDS011;5284;50.446;7.904;2023-03-01T15:00:50;17.08;;;8.75;;
10473;SDS011;5284;50.446;7.904;2023-03-01T15:05:58;20.17;;;8.80;;
10473;SDS011;5284;50.446;7.904;2023-03-01T15:11:03;16.75;;;7.22;;
10473;SDS011;5284;50.446;7.904;2023-03-01T15:16:10;20.10;;;7.18;;
10473;SDS011;5284;50.446;7.904;2023-03-01T15:21:18;17.17;;;8.23;;
10473;SDS011;5284;50.446;7.904;2023-03-01T15:26:24;16.25;;;8.30;;
10473;SDS011;5284;50.446;7.904;2023-03-01T15:31:33;16.98;;;7.78;;
10473;SDS011;5284;50.446;7.904;2023-03-01T15:36:44;24.23;;;9.18;;
10473;SDS011;5284;50.446;7.904;2023-03-01T15:41:51;14.93;;;7.25;;
10473;SDS011;5284;50.446;7.904;2023-03-01T15:46:54;19.67;;;10.25;;
10473;SDS011;5284;50.446;7.904;2023-03-01T15:51:59;15.55;;;7.95;;
10473;SDS011;5284;50.446;7.904;2023-03-01T15:57:02;22.88;;;8.30;;
10473;SDS011;5284;50.446;7.904;2023-03-01T16:02:08;20.58;;;8.63;;
10473;SDS011;5284;50.446;7.904;2023-03-01T16:07:13;20.13;;;8.18;;
10473;SDS011;5284;50.446;7.904;2023-03-01T16:12:16;26.77;;;9.65;;
10473;SDS011;5284;50.446;7.904;2023-03-01T16:17:21;19.35;;;7.20;;
10473;SDS011;5284;50.446;7.904;2023-03-01T16:22:26;25.02;;;9.43;;
10473;SDS011;5284;50.446;7.904;2023-03-01T16:27:29;24.98;;;9.20;;
10473;SDS011;5284;50.446;7.904;2023-03-01T16:32:32;25.48;;;8.65;;
10473;SDS011;5284;50.446;7.904;2023-03-01T16:37:39;23.92;;;9.20;;
10473;SDS011;5284;50.446;7.904;2023-03-01T16:42:44;15.35;;;7.40;;
10473;SDS011;5284;50.446;7.904;2023-03-01T16:47:47;26.92;;;8.15;;
10473;SDS011;5284;50.446;7.904;2023-03-01T16:52:52;29.98;;;8.88;;
10473;SDS011;5284;50.446;7.904;2023-03-01T16:57:55;21.85;;;8.65;;
10473;SDS011;5284;50.446;7.904;2023-03-01T17:02:58;29.52;;;11.98;;
10473;SDS011;5284;50.446;7.904;2023-03-01T17:08:04;22.83;;;8.82;;
10473;SDS011;5284;50.446;7.904;2023-03-01T17:13:08;14.50;;;7.28;;
10473;SDS011;5284;50.446;7.904;2023-03-01T17:18:11;15.32;;;7.38;;
10473;SDS011;5284;50.446;7.904;2023-03-01T17:23:16;25.70;;;9.60;;
10473;SDS011;5284;50.446;7.904;2023-03-01T17:28:18;36.08;;;10.18;;
10473;SDS011;5284;50.446;7.904;2023-03-01T17:33:22;40.72;;;15.40;;
10473;SDS011;5284;50.446;7.904;2023-03-01T17:38:26;35.55;;;18.50;;
10473;SDS011;5284;50.446;7.904;2023-03-01T17:43:29;18.67;;;7.30;;
10473;SDS011;5284;50.446;7.904;2023-03-01T17:48:34;28.70;;;11.57;;
10473;SDS011;5284;50.446;7.904;2023-03-01T17:53:40;22.25;;;9.55;;
10473;SDS011;5284;50.446;7.904;2023-03-01T17:58:43;33.75;;;12.63;;
10473;SDS011;5284;50.446;7.904;2023-03-01T18:03:49;18.00;;;9.32;;
10473;SDS011;5284;50.446;7.904;2023-03-01T18:08:54;30.48;;;8.68;;
10473;SDS011;5284;50.446;7.904;2023-03-01T18:13:57;23.05;;;9.80;;
10473;SDS011;5284;50.446;7.904;2023-03-01T18:19:00;21.50;;;9.32;;
10473;SDS011;5284;50.446;7.904;2023-03-01T18:24:05;22.02;;;9.60;;
10473;SDS011;5284;50.446;7.904;2023-03-01T18:29:09;20.95;;;10.25;;
10473;SDS011;5284;50.446;7.904;2023-03-01T18:34:12;40.60;;;14.55;;
10473;SDS011;5284;50.446;7.904;2023-03-01T18:39:19;19.35;;;9.45;;
10473;SDS011;5284;50.446;7.904;2023-03-01T18:44:23;21.25;;;10.52;;
10473;SDS011;5284;50.446;7.904;2023-03-01T18:49:25;19.25;;;9.18;;
10473;SDS011;5284;50.446;7.904;2023-03-01T18:54:30;20.60;;;8.50;;
10473;SDS011;5284;50.446;7.904;2023-03-01T18:59:35;20.75;;;8.18;;
10473;SDS011;5284;50.446;7.904;2023-03-01T19:04:38;16.52;;;8.20;;
10473;SDS011;5284;50.446;7.904;2023-03-01T19:09:42;19.63;;;7.97;;
10473;SDS011;5284;50.446;7.904;2023-03-01T19:14:45;20.80;;;8.82;;
10473;SDS011;5284;50.446;7.904;2023-03-01T19:19:48;17.58;;;8.30;;
10473;SDS011;5284;50.446;7.904;2023-03-01T19:24:53;18.15;;;8.20;;
10473;SDS011;5284;50.446;7.904;2023-03-01T19:29:56;17.00;;;7.32;;
10473;SDS011;5284;50.446;7.904;2023-03-01T19:34:58;20.45;;;7.85;;
10473;SDS011;5284;50.446;7.904;2023-03-01T19:40:03;23.20;;;8.55;;
10473;SDS011;5284;50.446;7.904;2023-03-01T19:45:07;21.17;;;7.72;;
10473;SDS011;5284;50.446;7.904;2023-03-01T19:50:12;21.05;;;8.75;;
10473;SDS011;5284;50.446;7.904;2023-03-01T19:55:17;17.10;;;7.72;;
10473;SDS011;5284;50.446;7.904;2023-03-01T20:00:22;18.70;;;7.45;;
10473;SDS011;5284;50.446;7.904;2023-03-01T20:05:25;18.15;;;7.72;;
10473;SDS011;5284;50.446;7.904;2023-03-01T20:10:30;24.58;;;8.05;;
10473;SDS011;5284;50.446;7.904;2023-03-01T20:20:41;15.90;;;7.10;;
10473;SDS011;5284;50.446;7.904;2023-03-01T20:25:46;20.42;;;9.30;;
10473;SDS011;5284;50.446;7.904;2023-03-01T20:30:49;23.25;;;7.85;;
10473;SDS011;5284;50.446;7.904;2023-03-01T20:35:53;20.35;;;7.78;;
10473;SDS011;5284;50.446;7.904;2023-03-01T20:40:58;17.88;;;9.00;;
10473;SDS011;5284;50.446;7.904;2023-03-01T20:46:03;17.98;;;8.25;;
10473;SDS011;5284;50.446;7.904;2023-03-01T20:51:07;20.20;;;8.48;;
10473;SDS011;5284;50.446;7.904;2023-03-01T20:56:12;16.55;;;8.00;;
10473;SDS011;5284;50.446;7.904;2023-03-01T21:01:34;25.85;;;9.05;;
10473;SDS011;5284;50.446;7.904;2023-03-01T21:06:38;19.17;;;8.70;;
10473;SDS011;5284;50.446;7.904;2023-03-01T21:11:44;20.92;;;7.72;;
10473;SDS011;5284;50.446;7.904;2023-03-01T21:16:47;19.83;;;7.85;;
10473;SDS011;5284;50.446;7.904;2023-03-01T21:21:51;20.90;;;8.05;;
10473;SDS011;5284;50.446;7.904;2023-03-01T21:26:55;19.20;;;8.30;;
10473;SDS011;5284;50.446;7.904;2023-03-01T21:31:58;16.08;;;7.65;;
10473;SDS011;5284;50.446;7.904;2023-03-01T21:37:05;22.57;;;8.93;;
10473;SDS011;5284;50.446;7.904;2023-03-01T21:42:10;23.23;;;8.20;;
10473;SDS011;5284;50.446;7.904;2023-03-01T21:47:13;19.20;;;6.85;;
10473;SDS011;5284;50.446;7.904;2023-03-01T21:52:16;20.70;;;9.10;;
10473;SDS011;5284;50.446;7.904;2023-03-01T21:57:20;18.63;;;8.30;;
10473;SDS011;5284;50.446;7.904;2023-03-01T22:02:23;23.65;;;8.68;;
10473;SDS011;5284;50.446;7.904;2023-03-01T22:07:26;25.73;;;9.15;;
10473;SDS011;5284;50.446;7.904;2023-03-01T22:12:30;19.42;;;8.93;;
10473;SDS011;5284;50.446;7.904;2023-03-01T22:17:33;16.88;;;7.80;;
10473;SDS011;5284;50.446;7.904;2023-03-01T22:22:37;20.00;;;8.65;;
10473;SDS011;5284;50.446;7.904;2023-03-01T22:27:41;19.02;;;8.55;;
10473;SDS011;5284;50.446;7.904;2023-03-01T22:32:44;18.30;;;8.15;;
10473;SDS011;5284;50.446;7.904;2023-03-01T22:37:47;21.92;;;10.43;;
10473;SDS011;5284;50.446;7.904;2023-03-01T22:42:51;22.27;;;8.77;;
10473;SDS011;5284;50.446;7.904;2023-03-01T22:47:54;23.92;;;9.25;;
10473;SDS011;5284;50.446;7.904;2023-03-01T22:52:58;26.80;;;9.57;;
10473;SDS011;5284;50.446;7.904;2023-03-01T22:58:03;24.70;;;9.27;;
10473;SDS011;5284;50.446;7.904;2023-03-01T23:03:06;18.55;;;8.95;;
10473;SDS011;5284;50.446;7.904;2023-03-01T23:08:09;19.40;;;9.10;;
10473;SDS011;5284;50.446;7.904;2023-03-01T23:13:14;21.45;;;9.40;;
10473;SDS011;5284;50.446;7.904;2023-03-01T23:18:17;23.65;;;9.05;;
10473;SDS011;5284;50.446;7.904;2023-03-01T23:23:20;22.02;;;9.43;;
10473;SDS011;5284;50.446;7.904;2023-03-01T23:28:24;23.90;;;8.70;;
10473;SDS011;5284;50.446;7.904;2023-03-01T23:33:28;21.63;;;9.98;;
10473;SDS011;5284;50.446;7.904;2023-03-01T23:38:38;19.52;;;9.88;;
10473;SDS011;5284;50.446;7.904;2023-03-01T23:43:43;27.77;;;10.07;;
10473;SDS011;5284;50.446;7.904;2023-03-01T23:48:47;22.33;;;9.13;;
10473;SDS011;5284;50.446;7.904;2023-03-01T23:53:51;23.20;;;8.95;;
10473;SDS011;5284;50.446;7.904;2023-03-01T23:59:01;34.83;;;10.38;;
